CheckWX is a tool to help pilots better visualize weather data.  It is not intended as a substitute for an official pre-flight weather briefing.

08:47:31 UTC

KWVL METAR
Waterville Robert Lafleur Airport
Waterville, Maine, USA
Current

52 mins ago

KWVL 270756Z AUTO 04008KT 10SM OVC013 03/M02 A2982 RMK AO2 PRESFR SLP128 T00281022 PWINO
Observed
Feb-27 @ 07:56 UTC
Wind
  • 040° at 8 KTS
Visibility
10 SM
Flight Rules
MVFR
Cloud Levels
  • Overcast at 1,300' AGL
Temperature
C / 37°F
Dewpoint
-2°C / 28°F
Humidity
70%
Altimeter
29.82" Hg
Pressure
1009.82 hPa
Previous

2 hours ago

KWVL 270656Z AUTO 04006KT 10SM OVC017 03/M03 A2990 RMK AO2 SLP156 T00331033 PWINO
Observed
Feb-27 @ 06:56 UTC
Wind
  • 040° at 6 KTS
Visibility
10 SM
Flight Rules
MVFR
Cloud Levels
  • Overcast at 1,700' AGL
Temperature
C / 37°F
Dewpoint
-3°C / 27°F
Humidity
65%
Altimeter
29.9" Hg
Pressure
1012.52 hPa
Previous

3 hours ago

KWVL 270556Z AUTO 04007KT 10SM OVC023 03/M03 A2990 RMK AO2 SLP156 T00331033 10044 20022 58015 PWINO
Observed
Feb-27 @ 05:56 UTC
Wind
  • 040° at 7 KTS
Visibility
10 SM
Flight Rules
MVFR
Cloud Levels
  • Overcast at 2,300' AGL
Temperature
C / 37°F
Dewpoint
-3°C / 27°F
Humidity
65%
Altimeter
29.9" Hg
Pressure
1012.52 hPa